ITY1745 LIRF-LICC
Flight info
| Callsign | ITY1745 |
|---|---|
| Flight time | 1h 0m |
| Altitude | 29000 |
| Route | ROTUN DCT DORAS DCT BEKIV DCT ENEPA DCT LIBRO |
| Aircraft | A320/M-SDE3FGHIRWY/LB1 |
Departure
| Time | 2026-02-19 12:57 |
|---|---|
| Airport | Rome–Fiumicino Leonardo da Vinci International Airport (LIRF) |
Arrival
| Time | 2026-02-19 13:57 |
|---|---|
| Airport | Catania-Fontanarossa Airport (LICC) |
| Time | Latitude | Longitude | Altitude | Speed | Heading |
|---|---|---|---|---|---|
| 2026-02-19 12:09 | 41.79720 | 12.25477 | 15 ft | 0 kts | 116° |
| 2026-02-19 12:45 | 41.79724 | 12.25466 | 17 ft | 2 kts | 116° |
| 2026-02-19 12:45 | 41.79732 | 12.25445 | 15 ft | 2 kts | 116° |
| 2026-02-19 12:46 | 41.79738 | 12.25429 | 17 ft | 3 kts | 108° |
| 2026-02-19 12:46 | 41.79741 | 12.25409 | 17 ft | 0 kts | 76° |
| 2026-02-19 12:46 | 41.79737 | 12.25395 | 17 ft | 0 kts | 62° |
| 2026-02-19 12:49 | 41.79738 | 12.25396 | 17 ft | 1 kts | 62° |
| 2026-02-19 12:49 | 41.79757 | 12.25422 | 16 ft | 8 kts | 36° |
| 2026-02-19 12:49 | 41.79806 | 12.25455 | 17 ft | 7 kts | 27° |
| 2026-02-19 12:49 | 41.79850 | 12.25484 | 16 ft | 7 kts | 25° |
| 2026-02-19 12:50 | 41.79911 | 12.25521 | 15 ft | 12 kts | 24° |
| 2026-02-19 12:50 | 41.79985 | 12.25570 | 17 ft | 11 kts | 37° |
| 2026-02-19 12:50 | 41.79983 | 12.25659 | 16 ft | 10 kts | 115° |
| 2026-02-19 12:50 | 41.79955 | 12.25738 | 17 ft | 9 kts | 116° |
| 2026-02-19 12:51 | 41.79931 | 12.25830 | 15 ft | 11 kts | 82° |
| 2026-02-19 12:51 | 41.79983 | 12.25890 | 15 ft | 11 kts | 25° |
| 2026-02-19 12:51 | 41.80070 | 12.25945 | 15 ft | 14 kts | 25° |
| 2026-02-19 12:51 | 41.80158 | 12.25999 | 15 ft | 14 kts | 24° |
| 2026-02-19 12:52 | 41.80252 | 12.26057 | 15 ft | 15 kts | 25° |
| 2026-02-19 12:52 | 41.80424 | 12.26164 | 15 ft | 13 kts | 20° |
| 2026-02-19 12:52 | 41.80517 | 12.26224 | 15 ft | 15 kts | 50° |
| 2026-02-19 12:53 | 41.80559 | 12.26348 | 15 ft | 14 kts | 70° |
| 2026-02-19 12:53 | 41.80592 | 12.26469 | 16 ft | 13 kts | 70° |
| 2026-02-19 12:53 | 41.80621 | 12.26575 | 15 ft | 12 kts | 70° |
| 2026-02-19 12:53 | 41.80649 | 12.26677 | 15 ft | 11 kts | 70° |
| 2026-02-19 12:54 | 41.80674 | 12.26769 | 15 ft | 10 kts | 70° |
| 2026-02-19 12:54 | 41.80697 | 12.26851 | 16 ft | 9 kts | 70° |
| 2026-02-19 12:54 | 41.80718 | 12.26929 | 15 ft | 12 kts | 69° |
| 2026-02-19 12:54 | 41.80766 | 12.27032 | 15 ft | 12 kts | 28° |
| 2026-02-19 12:55 | 41.80839 | 12.27028 | 16 ft | 8 kts | 341° |
| 2026-02-19 12:55 | 41.80889 | 12.27005 | 15 ft | 7 kts | 341° |
| 2026-02-19 12:55 | 41.80931 | 12.26985 | 15 ft | 6 kts | 341° |
| 2026-02-19 12:55 | 41.80968 | 12.26958 | 14 ft | 5 kts | 317° |
| 2026-02-19 12:56 | 41.80958 | 12.26920 | 13 ft | 4 kts | 247° |
| 2026-02-19 12:56 | 41.80782 | 12.26289 | 18 ft | 94 kts | 250° |
| 2026-02-19 12:56 | 41.80476 | 12.25198 | 15 ft | 148 kts | 250° |
| 2026-02-19 12:57 | 41.80086 | 12.23791 | 434 ft | 157 kts | 248° |
| 2026-02-19 12:57 | 41.79738 | 12.22407 | 1266 ft | 153 kts | 253° |
| 2026-02-19 12:57 | 41.79432 | 12.21053 | 1959 ft | 157 kts | 257° |
| 2026-02-19 12:57 | 41.79321 | 12.19483 | 2365 ft | 176 kts | 264° |
| 2026-02-19 12:58 | 41.79263 | 12.17836 | 2958 ft | 182 kts | 264° |
| 2026-02-19 12:58 | 41.79194 | 12.16109 | 3630 ft | 184 kts | 258° |
| 2026-02-19 12:58 | 41.78695 | 12.14575 | 4272 ft | 186 kts | 231° |
| 2026-02-19 12:58 | 41.77748 | 12.13348 | 4951 ft | 189 kts | 224° |
| 2026-02-19 12:59 | 41.76775 | 12.12147 | 5713 ft | 190 kts | 224° |
| 2026-02-19 12:59 | 41.75714 | 12.11020 | 6252 ft | 207 kts | 208° |
| 2026-02-19 12:59 | 41.74208 | 12.10701 | 6591 ft | 239 kts | 181° |
| 2026-02-19 12:59 | 41.72470 | 12.10907 | 7094 ft | 258 kts | 179° |
| 2026-02-19 13:00 | 41.70666 | 12.11171 | 7897 ft | 264 kts | 178° |
| 2026-02-19 13:00 | 41.67274 | 12.11688 | 9470 ft | 271 kts | 178° |
| 2026-02-19 13:00 | 41.65376 | 12.11972 | 10105 ft | 284 kts | 178° |
| 2026-02-19 13:01 | 41.63326 | 12.12261 | 10377 ft | 307 kts | 178° |
| 2026-02-19 13:01 | 41.61147 | 12.12564 | 10882 ft | 320 kts | 178° |
| 2026-02-19 13:01 | 41.58914 | 12.12878 | 11638 ft | 324 kts | 178° |
| 2026-02-19 13:01 | 41.56657 | 12.13198 | 12455 ft | 327 kts | 179° |
| 2026-02-19 13:02 | 41.54389 | 12.13521 | 13284 ft | 330 kts | 179° |
| 2026-02-19 13:02 | 41.52104 | 12.13842 | 14034 ft | 332 kts | 179° |
| 2026-02-19 13:02 | 41.49800 | 12.14165 | 14781 ft | 333 kts | 180° |
| 2026-02-19 13:02 | 41.47485 | 12.14487 | 15518 ft | 335 kts | 180° |
| 2026-02-19 13:03 | 41.45161 | 12.14810 | 16263 ft | 336 kts | 181° |
| 2026-02-19 13:03 | 41.42833 | 12.15135 | 17000 ft | 338 kts | 181° |
| 2026-02-19 13:03 | 41.40492 | 12.15461 | 17729 ft | 339 kts | 181° |
| 2026-02-19 13:03 | 41.38237 | 12.15953 | 18360 ft | 350 kts | 171° |
| 2026-02-19 13:04 | 41.35844 | 12.17115 | 18992 ft | 357 kts | 168° |
| 2026-02-19 13:04 | 41.31228 | 12.19495 | 20200 ft | 362 kts | 168° |
| 2026-02-19 13:04 | 41.28870 | 12.20730 | 20792 ft | 365 kts | 168° |
| 2026-02-19 13:05 | 41.26468 | 12.21987 | 21387 ft | 368 kts | 168° |
| 2026-02-19 13:05 | 41.24106 | 12.23221 | 21978 ft | 371 kts | 168° |
| 2026-02-19 13:05 | 41.21663 | 12.24490 | 22545 ft | 374 kts | 168° |
| 2026-02-19 13:05 | 41.19225 | 12.25751 | 23093 ft | 377 kts | 168° |
| 2026-02-19 13:06 | 41.16768 | 12.27017 | 23577 ft | 380 kts | 168° |
| 2026-02-19 13:06 | 41.14295 | 12.28290 | 24020 ft | 383 kts | 169° |
| 2026-02-19 13:06 | 41.11799 | 12.29573 | 24464 ft | 386 kts | 169° |
| 2026-02-19 13:06 | 41.09324 | 12.30846 | 24894 ft | 388 kts | 169° |
| 2026-02-19 13:07 | 41.06764 | 12.32166 | 25322 ft | 391 kts | 169° |
| 2026-02-19 13:07 | 41.04218 | 12.33477 | 25736 ft | 393 kts | 169° |
| 2026-02-19 13:07 | 41.01659 | 12.34794 | 26142 ft | 396 kts | 169° |
| 2026-02-19 13:07 | 40.99090 | 12.36116 | 26547 ft | 398 kts | 169° |
| 2026-02-19 13:08 | 40.96534 | 12.37429 | 26935 ft | 400 kts | 170° |
| 2026-02-19 13:08 | 40.91308 | 12.40107 | 27715 ft | 405 kts | 170° |
| 2026-02-19 13:08 | 40.88671 | 12.41453 | 28094 ft | 407 kts | 170° |
| 2026-02-19 13:09 | 40.86880 | 12.42367 | 28340 ft | 409 kts | 170° |
| 2026-02-19 13:09 | 40.83357 | 12.44168 | 28814 ft | 412 kts | 170° |
| 2026-02-19 13:09 | 40.81546 | 12.45094 | 29052 ft | 413 kts | 170° |
| 2026-02-19 13:09 | 40.77986 | 12.46912 | 29503 ft | 416 kts | 170° |
| 2026-02-19 13:10 | 40.75282 | 12.48285 | 29746 ft | 418 kts | 171° |
| 2026-02-19 13:10 | 40.72605 | 12.49654 | 29777 ft | 406 kts | 171° |
| 2026-02-19 13:10 | 40.68252 | 12.51898 | 29781 ft | 398 kts | 171° |
| 2026-02-19 13:11 | 40.63101 | 12.54513 | 29793 ft | 396 kts | 171° |
| 2026-02-19 13:11 | 40.57951 | 12.57100 | 29789 ft | 396 kts | 171° |
| 2026-02-19 13:12 | 40.51544 | 12.60325 | 29779 ft | 392 kts | 171° |
| 2026-02-19 13:12 | 40.49000 | 12.61615 | 29643 ft | 391 kts | 171° |
| 2026-02-19 13:13 | 40.46462 | 12.62900 | 29508 ft | 390 kts | 171° |
| 2026-02-19 13:13 | 40.43932 | 12.64175 | 29351 ft | 391 kts | 171° |
| 2026-02-19 13:13 | 40.41388 | 12.65453 | 29206 ft | 391 kts | 171° |
| 2026-02-19 13:13 | 40.38806 | 12.66749 | 29063 ft | 392 kts | 171° |
| 2026-02-19 13:14 | 40.36290 | 12.68016 | 28899 ft | 393 kts | 171° |
| 2026-02-19 13:14 | 40.33737 | 12.69302 | 28774 ft | 393 kts | 171° |
| 2026-02-19 13:14 | 40.31182 | 12.70589 | 28808 ft | 394 kts | 171° |
| 2026-02-19 13:15 | 40.26059 | 12.73162 | 28808 ft | 395 kts | 171° |
| 2026-02-19 13:15 | 40.20928 | 12.75732 | 28812 ft | 395 kts | 171° |
| 2026-02-19 13:16 | 40.15792 | 12.78305 | 28817 ft | 396 kts | 171° |
| 2026-02-19 13:16 | 40.08067 | 12.82153 | 28808 ft | 396 kts | 171° |
| 2026-02-19 13:17 | 40.02912 | 12.84726 | 28801 ft | 396 kts | 171° |
| 2026-02-19 13:17 | 39.97761 | 12.87298 | 28795 ft | 397 kts | 171° |
| 2026-02-19 13:18 | 39.92600 | 12.89849 | 28796 ft | 397 kts | 171° |
| 2026-02-19 13:18 | 39.87481 | 12.92385 | 28807 ft | 397 kts | 171° |
| 2026-02-19 13:19 | 39.82312 | 12.94947 | 28803 ft | 398 kts | 171° |
| 2026-02-19 13:19 | 39.77137 | 12.97510 | 28808 ft | 398 kts | 170° |
| 2026-02-19 13:20 | 39.69334 | 13.01361 | 28810 ft | 398 kts | 170° |
| 2026-02-19 13:21 | 39.64179 | 13.03896 | 28820 ft | 399 kts | 170° |
| 2026-02-19 13:21 | 39.61637 | 13.05465 | 28820 ft | 413 kts | 160° |
| 2026-02-19 13:21 | 39.59277 | 13.07719 | 28823 ft | 429 kts | 148° |
| 2026-02-19 13:21 | 39.57240 | 13.10638 | 28824 ft | 445 kts | 136° |
| 2026-02-19 13:22 | 39.55413 | 13.13890 | 28828 ft | 446 kts | 136° |
| 2026-02-19 13:22 | 39.51725 | 13.20432 | 28828 ft | 447 kts | 136° |
| 2026-02-19 13:23 | 39.48063 | 13.26864 | 28839 ft | 447 kts | 136° |
| 2026-02-19 13:23 | 39.44366 | 13.33331 | 28848 ft | 447 kts | 136° |
| 2026-02-19 13:24 | 39.40666 | 13.39805 | 28844 ft | 448 kts | 136° |
| 2026-02-19 13:25 | 39.33231 | 13.52791 | 28852 ft | 448 kts | 136° |
| 2026-02-19 13:25 | 39.29523 | 13.59261 | 28853 ft | 448 kts | 136° |
| 2026-02-19 13:26 | 39.25807 | 13.65721 | 28858 ft | 448 kts | 136° |
| 2026-02-19 13:26 | 39.22084 | 13.72175 | 28857 ft | 448 kts | 136° |
| 2026-02-19 13:27 | 39.18353 | 13.78626 | 28860 ft | 449 kts | 136° |
| 2026-02-19 13:27 | 39.14647 | 13.85021 | 28863 ft | 449 kts | 136° |
| 2026-02-19 13:28 | 39.10917 | 13.91441 | 28865 ft | 449 kts | 136° |
| 2026-02-19 13:28 | 39.05292 | 14.01111 | 28876 ft | 450 kts | 136° |
| 2026-02-19 13:29 | 39.01544 | 14.07541 | 28880 ft | 450 kts | 135° |
| 2026-02-19 13:29 | 38.97787 | 14.13983 | 28878 ft | 450 kts | 135° |
| 2026-02-19 13:30 | 38.94023 | 14.20419 | 28882 ft | 450 kts | 136° |
| 2026-02-19 13:30 | 38.90260 | 14.26830 | 28878 ft | 450 kts | 135° |
| 2026-02-19 13:31 | 38.86497 | 14.33243 | 28888 ft | 450 kts | 135° |
| 2026-02-19 13:31 | 38.82728 | 14.39647 | 28887 ft | 450 kts | 135° |
| 2026-02-19 13:32 | 38.77015 | 14.49288 | 28892 ft | 451 kts | 135° |
| 2026-02-19 13:33 | 38.73333 | 14.55504 | 28887 ft | 451 kts | 135° |
| 2026-02-19 13:33 | 38.69527 | 14.61943 | 28885 ft | 451 kts | 135° |
| 2026-02-19 13:34 | 38.65732 | 14.68337 | 28889 ft | 451 kts | 135° |
| 2026-02-19 13:34 | 38.61925 | 14.74725 | 28892 ft | 451 kts | 135° |
| 2026-02-19 13:34 | 38.60028 | 14.77902 | 28785 ft | 449 kts | 135° |
| 2026-02-19 13:35 | 38.58141 | 14.81064 | 28644 ft | 447 kts | 135° |
| 2026-02-19 13:35 | 38.56255 | 14.84220 | 28507 ft | 446 kts | 135° |
| 2026-02-19 13:35 | 38.54382 | 14.87356 | 28266 ft | 443 kts | 135° |
| 2026-02-19 13:35 | 38.52512 | 14.90484 | 27999 ft | 442 kts | 135° |
| 2026-02-19 13:36 | 38.50654 | 14.93590 | 27735 ft | 439 kts | 135° |
| 2026-02-19 13:36 | 38.48177 | 14.97719 | 27374 ft | 436 kts | 134° |
| 2026-02-19 13:37 | 38.47495 | 14.98926 | 27359 ft | 433 kts | 130° |
| 2026-02-19 13:37 | 38.45780 | 15.02124 | 26556 ft | 442 kts | 133° |
| 2026-02-19 13:37 | 38.43912 | 15.05273 | 25693 ft | 445 kts | 135° |
| 2026-02-19 13:37 | 38.41982 | 15.08348 | 25076 ft | 442 kts | 136° |
| 2026-02-19 13:38 | 38.40047 | 15.11387 | 24437 ft | 440 kts | 135° |
| 2026-02-19 13:38 | 38.38162 | 15.14378 | 23980 ft | 435 kts | 135° |
| 2026-02-19 13:38 | 38.36290 | 15.17405 | 23495 ft | 431 kts | 134° |
| 2026-02-19 13:38 | 38.34457 | 15.20420 | 22864 ft | 429 kts | 134° |
| 2026-02-19 13:39 | 38.32656 | 15.23417 | 22301 ft | 425 kts | 133° |
| 2026-02-19 13:39 | 38.31268 | 15.25733 | 21912 ft | 422 kts | 133° |
| 2026-02-19 13:39 | 38.29492 | 15.28690 | 21386 ft | 420 kts | 133° |
| 2026-02-19 13:39 | 38.27723 | 15.31624 | 20868 ft | 417 kts | 134° |
| 2026-02-19 13:40 | 38.25957 | 15.34537 | 20343 ft | 415 kts | 134° |
| 2026-02-19 13:40 | 38.22450 | 15.40305 | 19367 ft | 407 kts | 133° |
| 2026-02-19 13:40 | 38.20736 | 15.43126 | 18771 ft | 399 kts | 134° |
| 2026-02-19 13:41 | 38.19061 | 15.45883 | 18262 ft | 390 kts | 134° |
| 2026-02-19 13:41 | 38.17424 | 15.48579 | 17729 ft | 380 kts | 134° |
| 2026-02-19 13:41 | 38.15830 | 15.51197 | 17255 ft | 369 kts | 134° |
| 2026-02-19 13:41 | 38.14281 | 15.53734 | 16793 ft | 360 kts | 134° |
| 2026-02-19 13:42 | 38.12767 | 15.56214 | 16343 ft | 351 kts | 134° |
| 2026-02-19 13:42 | 38.11271 | 15.58617 | 15910 ft | 341 kts | 139° |
| 2026-02-19 13:42 | 38.09535 | 15.60545 | 15494 ft | 325 kts | 154° |
| 2026-02-19 13:42 | 38.07523 | 15.61813 | 14998 ft | 317 kts | 169° |
| 2026-02-19 13:43 | 38.05413 | 15.62395 | 14522 ft | 309 kts | 182° |
| 2026-02-19 13:43 | 38.03966 | 15.62421 | 14196 ft | 305 kts | 191° |
| 2026-02-19 13:43 | 38.01262 | 15.61656 | 13542 ft | 299 kts | 205° |
| 2026-02-19 13:43 | 37.99298 | 15.60764 | 13013 ft | 301 kts | 205° |
| 2026-02-19 13:44 | 37.97318 | 15.59870 | 12489 ft | 302 kts | 205° |
| 2026-02-19 13:44 | 37.94012 | 15.58391 | 11830 ft | 301 kts | 204° |
| 2026-02-19 13:44 | 37.92041 | 15.57512 | 11454 ft | 300 kts | 204° |
| 2026-02-19 13:45 | 37.89448 | 15.56354 | 10968 ft | 298 kts | 204° |
| 2026-02-19 13:45 | 37.88126 | 15.55764 | 10716 ft | 297 kts | 204° |
| 2026-02-19 13:45 | 37.86183 | 15.54895 | 10361 ft | 296 kts | 204° |
| 2026-02-19 13:45 | 37.84276 | 15.54041 | 10008 ft | 294 kts | 204° |
| 2026-02-19 13:46 | 37.82354 | 15.53182 | 9626 ft | 292 kts | 204° |
| 2026-02-19 13:46 | 37.80451 | 15.52332 | 9237 ft | 290 kts | 204° |
| 2026-02-19 13:46 | 37.78528 | 15.51473 | 8849 ft | 288 kts | 204° |
| 2026-02-19 13:46 | 37.76679 | 15.50646 | 8466 ft | 284 kts | 203° |
| 2026-02-19 13:47 | 37.76012 | 15.50348 | 8332 ft | 282 kts | 203° |
| 2026-02-19 13:47 | 37.75110 | 15.49909 | 8134 ft | 279 kts | 207° |
| 2026-02-19 13:47 | 37.73326 | 15.48985 | 7766 ft | 276 kts | 204° |
| 2026-02-19 13:47 | 37.71533 | 15.48183 | 7393 ft | 268 kts | 202° |
| 2026-02-19 13:48 | 37.69800 | 15.47452 | 7025 ft | 259 kts | 201° |
| 2026-02-19 13:48 | 37.66412 | 15.46021 | 6293 ft | 255 kts | 202° |
| 2026-02-19 13:48 | 37.64746 | 15.45302 | 5951 ft | 252 kts | 202° |
| 2026-02-19 13:49 | 37.63099 | 15.44580 | 5664 ft | 248 kts | 202° |
| 2026-02-19 13:49 | 37.61497 | 15.43874 | 5381 ft | 241 kts | 202° |
| 2026-02-19 13:49 | 37.59929 | 15.43182 | 5101 ft | 235 kts | 202° |
| 2026-02-19 13:49 | 37.58406 | 15.42510 | 4845 ft | 229 kts | 202° |
| 2026-02-19 13:50 | 37.57273 | 15.42010 | 4648 ft | 224 kts | 202° |
| 2026-02-19 13:50 | 37.55826 | 15.41370 | 4395 ft | 217 kts | 202° |
| 2026-02-19 13:50 | 37.54426 | 15.40750 | 4163 ft | 210 kts | 202° |
| 2026-02-19 13:50 | 37.53066 | 15.40132 | 3932 ft | 204 kts | 206° |
| 2026-02-19 13:51 | 37.51871 | 15.39232 | 3703 ft | 198 kts | 220° |
| 2026-02-19 13:51 | 37.50923 | 15.37985 | 3475 ft | 196 kts | 233° |
| 2026-02-19 13:51 | 37.50259 | 15.36470 | 3072 ft | 202 kts | 247° |
| 2026-02-19 13:51 | 37.49796 | 15.34807 | 2809 ft | 199 kts | 247° |
| 2026-02-19 13:52 | 37.49339 | 15.33188 | 2663 ft | 194 kts | 247° |
| 2026-02-19 13:52 | 37.48619 | 15.29980 | 2465 ft | 185 kts | 260° |
| 2026-02-19 13:52 | 37.48497 | 15.28408 | 2398 ft | 177 kts | 259° |
| 2026-02-19 13:53 | 37.48372 | 15.26882 | 2291 ft | 174 kts | 259° |
| 2026-02-19 13:53 | 37.48248 | 15.25371 | 2208 ft | 173 kts | 259° |
| 2026-02-19 13:53 | 37.48123 | 15.23860 | 2130 ft | 173 kts | 259° |
| 2026-02-19 13:53 | 37.47997 | 15.22354 | 2053 ft | 173 kts | 259° |
| 2026-02-19 13:54 | 37.47878 | 15.20888 | 1967 ft | 160 kts | 260° |
| 2026-02-19 13:54 | 37.47773 | 15.19577 | 1824 ft | 143 kts | 259° |
| 2026-02-19 13:54 | 37.47674 | 15.18364 | 1632 ft | 136 kts | 258° |
| 2026-02-19 13:54 | 37.47574 | 15.17192 | 1442 ft | 134 kts | 258° |
| 2026-02-19 13:55 | 37.47475 | 15.16031 | 1253 ft | 133 kts | 258° |
| 2026-02-19 13:55 | 37.47375 | 15.14870 | 1070 ft | 135 kts | 261° |
| 2026-02-19 13:55 | 37.47274 | 15.13702 | 902 ft | 134 kts | 261° |
| 2026-02-19 13:55 | 37.47171 | 15.12529 | 799 ft | 135 kts | 262° |
| 2026-02-19 13:56 | 37.47081 | 15.11349 | 653 ft | 137 kts | 262° |
| 2026-02-19 13:56 | 37.46877 | 15.09008 | 265 ft | 134 kts | 264° |
| 2026-02-19 13:56 | 37.46781 | 15.07844 | 97 ft | 132 kts | 261° |
| 2026-02-19 13:57 | 37.46688 | 15.06763 | 51 ft | 98 kts | 264° |
| 2026-02-19 13:57 | 37.46640 | 15.06170 | 51 ft | 56 kts | 264° |
| 2026-02-19 13:57 | 37.46602 | 15.05726 | 50 ft | 46 kts | 264° |
| 2026-02-19 13:57 | 37.46623 | 15.05488 | 51 ft | 18 kts | 319° |
| 2026-02-19 13:58 | 37.46732 | 15.05505 | 50 ft | 17 kts | 49° |
| 2026-02-19 13:58 | 37.46760 | 15.05637 | 51 ft | 15 kts | 82° |
| 2026-02-19 13:58 | 37.46769 | 15.05761 | 51 ft | 13 kts | 85° |
| 2026-02-19 13:58 | 37.46778 | 15.05872 | 51 ft | 12 kts | 83° |
| 2026-02-19 13:59 | 37.46788 | 15.05978 | 51 ft | 12 kts | 83° |
| 2026-02-19 13:59 | 37.46796 | 15.06075 | 51 ft | 11 kts | 84° |
| 2026-02-19 13:59 | 37.46803 | 15.06166 | 51 ft | 10 kts | 84° |
| 2026-02-19 13:59 | 37.46811 | 15.06253 | 51 ft | 10 kts | 83° |
| 2026-02-19 14:00 | 37.46819 | 15.06338 | 51 ft | 10 kts | 83° |
| 2026-02-19 14:00 | 37.46864 | 15.06491 | 51 ft | 10 kts | 11° |
| 2026-02-19 14:00 | 37.46919 | 15.06515 | 51 ft | 7 kts | 19° |
| 2026-02-19 14:01 | 37.46948 | 15.06527 | 51 ft | 0 kts | 19° |
| 2026-02-19 14:01 | 37.46950 | 15.06528 | 51 ft | 0 kts | 19° |